Time,TemperatureF,DewpointF,PressureIn,WindDirection,WindDirectionDegrees,WindSpeedMPH,WindSpeedGustMPH,Humidity,HourlyPrecipIn,Conditions,Clouds,dailyrainin,SolarRadiationWatts/m^2,SoftwareType,DateUTC
2013-05-26 00:01:00,47.0,23.0,-100.00,WNW,298,2.0,6.0,39,0.00,,,0.00,1.000000,,2013-05-26 06:01:00,
2013-05-26 00:12:00,47.0,23.0,-100.00,WNW,298,2.0,6.0,39,0.00,,,0.00,1.000000,,2013-05-26 06:12:00,
2013-05-26 00:22:00,47.0,23.0,-100.00,WNW,298,2.0,6.0,39,0.00,,,0.00,1.000000,,2013-05-26 06:22:00,
2013-05-26 00:42:00,49.0,20.0,-100.00,WSW,251,2.0,6.0,32,0.00,,,0.00,1.000000,,2013-05-26 06:42:00,
2013-05-26 00:52:00,49.0,20.0,-100.00,WSW,251,2.0,6.0,32,0.00,,,0.00,1.000000,,2013-05-26 06:52:00,
2013-05-26 01:01:00,49.0,20.0,-100.00,WSW,251,2.0,6.0,32,0.00,,,0.00,1.000000,,2013-05-26 07:01:00,
2013-05-26 01:11:00,49.0,20.0,-100.00,WSW,251,2.0,6.0,32,0.00,,,0.00,1.000000,,2013-05-26 07:11:00,
2013-05-26 01:21:00,49.0,20.0,-100.00,WSW,251,2.0,6.0,32,0.00,,,0.00,1.000000,,2013-05-26 07:21:00,
2013-05-26 01:42:00,47.0,20.0,-100.00,WSW,247,1.0,5.0,34,0.00,,,0.00,1.000000,,2013-05-26 07:42:00,
2013-05-26 01:52:00,47.0,20.0,-100.00,WSW,247,1.0,5.0,34,0.00,,,0.00,1.000000,,2013-05-26 07:52:00,
2013-05-26 02:01:00,47.0,20.0,-100.00,WSW,247,1.0,5.0,34,0.00,,,0.00,1.000000,,2013-05-26 08:01:00,
2013-05-26 02:12:00,47.0,20.0,-100.00,WSW,247,1.0,5.0,34,0.00,,,0.00,1.000000,,2013-05-26 08:12:00,
2013-05-26 02:21:00,47.0,20.0,-100.00,WSW,247,1.0,5.0,34,0.00,,,0.00,1.000000,,2013-05-26 08:21:00,
2013-05-26 02:42:00,52.0,18.0,-100.00,West,264,7.0,13.0,26,0.00,,,0.00,1.000000,,2013-05-26 08:42:00,
2013-05-26 02:53:00,52.0,18.0,-100.00,West,264,7.0,13.0,26,0.00,,,0.00,1.000000,,2013-05-26 08:53:00,
2013-05-26 03:01:00,52.0,18.0,-100.00,West,264,7.0,13.0,26,0.00,,,0.00,1.000000,,2013-05-26 09:01:00,
2013-05-26 03:11:00,52.0,18.0,-100.00,West,264,7.0,13.0,26,0.00,,,0.00,1.000000,,2013-05-26 09:11:00,
2013-05-26 03:21:00,52.0,18.0,-100.00,West,264,7.0,13.0,26,0.00,,,0.00,1.000000,,2013-05-26 09:21:00,
2013-05-26 03:43:00,51.0,19.0,-100.00,West,274,7.0,14.0,28,0.00,,,0.00,1.000000,,2013-05-26 09:43:00,
2013-05-26 03:53:00,51.0,19.0,-100.00,West,274,7.0,14.0,28,0.00,,,0.00,1.000000,,2013-05-26 09:53:00,
2013-05-26 04:02:00,51.0,19.0,-100.00,West,274,7.0,14.0,28,0.00,,,0.00,1.000000,,2013-05-26 10:02:00,
2013-05-26 04:12:00,51.0,19.0,-100.00,West,274,7.0,14.0,28,0.00,,,0.00,1.000000,,2013-05-26 10:12:00,
2013-05-26 04:23:00,51.0,19.0,-100.00,West,274,7.0,14.0,28,0.00,,,0.00,1.000000,,2013-05-26 10:23:00,
2013-05-26 04:42:00,50.0,19.0,-100.00,West,266,7.0,11.0,29,0.00,,,0.00,1.000000,,2013-05-26 10:42:00,
2013-05-26 04:52:00,50.0,19.0,-100.00,West,266,7.0,11.0,29,0.00,,,0.00,1.000000,,2013-05-26 10:52:00,
2013-05-26 05:03:00,50.0,19.0,-100.00,West,266,7.0,11.0,29,0.00,,,0.00,1.000000,,2013-05-26 11:03:00,
2013-05-26 05:11:00,50.0,19.0,-100.00,West,266,7.0,11.0,29,0.00,,,0.00,1.000000,,2013-05-26 11:11:00,
2013-05-26 05:22:00,50.0,19.0,-100.00,West,266,7.0,11.0,29,0.00,,,0.00,1.000000,,2013-05-26 11:22:00,
2013-05-26 05:42:00,52.0,17.0,-100.00,West,261,10.0,15.0,25,0.00,,,0.00,1.000000,,2013-05-26 11:42:00,
2013-05-26 05:52:00,52.0,17.0,-100.00,West,261,10.0,15.0,25,0.00,,,0.00,1.000000,,2013-05-26 11:52:00,
2013-05-26 06:02:00,52.0,17.0,-100.00,West,261,10.0,15.0,25,0.00,,,0.00,1.000000,,2013-05-26 12:02:00,
2013-05-26 06:12:00,52.0,17.0,-100.00,West,261,10.0,15.0,25,0.00,,,0.00,1.000000,,2013-05-26 12:12:00,
2013-05-26 06:21:00,52.0,17.0,-100.00,West,261,10.0,15.0,25,0.00,,,0.00,1.000000,,2013-05-26 12:21:00,
2013-05-26 06:42:00,52.0,17.0,-100.00,WSW,256,10.0,15.0,25,0.00,,,0.00,3.000000,,2013-05-26 12:42:00,
2013-05-26 06:52:00,52.0,17.0,-100.00,WSW,256,10.0,15.0,25,0.00,,,0.00,3.000000,,2013-05-26 12:52:00,
2013-05-26 07:02:00,52.0,17.0,-100.00,WSW,256,10.0,15.0,25,0.00,,,0.00,3.000000,,2013-05-26 13:02:00,
2013-05-26 07:11:00,52.0,17.0,-100.00,WSW,256,10.0,15.0,25,0.00,,,0.00,3.000000,,2013-05-26 13:11:00,
2013-05-26 07:21:00,52.0,17.0,-100.00,WSW,256,10.0,15.0,25,0.00,,,0.00,3.000000,,2013-05-26 13:21:00,
2013-05-26 07:42:00,56.0,20.0,-100.00,West,263,5.0,11.0,24,0.00,,,0.00,59.000000,,2013-05-26 13:42:00,
2013-05-26 07:52:00,56.0,20.0,-100.00,West,263,5.0,11.0,24,0.00,,,0.00,59.000000,,2013-05-26 13:52:00,
2013-05-26 08:02:00,56.0,20.0,-100.00,West,263,5.0,11.0,24,0.00,,,0.00,59.000000,,2013-05-26 14:02:00,
2013-05-26 08:11:00,56.0,20.0,-100.00,West,263,5.0,11.0,24,0.00,,,0.00,59.000000,,2013-05-26 14:11:00,
2013-05-26 08:21:00,56.0,20.0,-100.00,West,263,5.0,11.0,24,0.00,,,0.00,59.000000,,2013-05-26 14:21:00,
2013-05-26 08:42:00,55.0,21.0,-100.00,West,260,10.0,15.0,26,0.00,,,0.00,77.000000,,2013-05-26 14:42:00,
2013-05-26 08:52:00,55.0,21.0,-100.00,West,260,10.0,15.0,26,0.00,,,0.00,77.000000,,2013-05-26 14:52:00,
2013-05-26 09:01:00,55.0,21.0,-100.00,West,260,10.0,15.0,26,0.00,,,0.00,77.000000,,2013-05-26 15:01:00,
2013-05-26 09:12:00,55.0,21.0,-100.00,West,260,10.0,15.0,26,0.00,,,0.00,77.000000,,2013-05-26 15:12:00,
2013-05-26 09:22:00,55.0,21.0,-100.00,West,260,10.0,15.0,26,0.00,,,0.00,77.000000,,2013-05-26 15:22:00,
2013-05-26 09:43:00,54.0,26.0,-100.00,West,280,6.0,15.0,33,0.00,,,0.00,113.000000,,2013-05-26 15:43:00,
2013-05-26 09:53:00,54.0,26.0,-100.00,West,280,6.0,15.0,33,0.00,,,0.00,113.000000,,2013-05-26 15:53:00,
2013-05-26 10:03:00,54.0,26.0,-100.00,West,280,6.0,15.0,33,0.00,,,0.00,113.000000,,2013-05-26 16:03:00,
2013-05-26 10:12:00,54.0,26.0,-100.00,West,280,6.0,15.0,33,0.00,,,0.00,113.000000,,2013-05-26 16:12:00,
2013-05-26 10:23:00,54.0,26.0,-100.00,West,280,6.0,15.0,33,0.00,,,0.00,113.000000,,2013-05-26 16:23:00,
2013-05-26 10:42:00,58.0,31.0,-100.00,West,274,4.0,9.0,35,0.00,,,0.00,208.000000,,2013-05-26 16:42:00,
2013-05-26 10:53:00,58.0,31.0,-100.00,West,274,4.0,9.0,35,0.00,,,0.00,208.000000,,2013-05-26 16:53:00,
2013-05-26 11:02:00,58.0,31.0,-100.00,West,274,4.0,9.0,35,0.00,,,0.00,208.000000,,2013-05-26 17:02:00,
2013-05-26 11:11:00,58.0,31.0,-100.00,West,274,4.0,9.0,35,0.00,,,0.00,208.000000,,2013-05-26 17:11:00,
2013-05-26 11:22:00,58.0,31.0,-100.00,West,274,4.0,9.0,35,0.00,,,0.00,208.000000,,2013-05-26 17:22:00,
2013-05-26 11:42:00,70.0,17.0,-100.00,SSW,201,4.0,9.0,13,0.00,,,0.00,775.000000,,2013-05-26 17:42:00,
2013-05-26 11:52:00,70.0,17.0,-100.00,SSW,201,4.0,9.0,13,0.00,,,0.00,775.000000,,2013-05-26 17:52:00,
2013-05-26 12:01:00,70.0,17.0,-100.00,SSW,201,4.0,9.0,13,0.00,,,0.00,775.000000,,2013-05-26 18:01:00,
2013-05-26 12:12:00,70.0,17.0,-100.00,SSW,201,4.0,9.0,13,0.00,,,0.00,775.000000,,2013-05-26 18:12:00,
2013-05-26 12:21:00,70.0,17.0,-100.00,SSW,201,4.0,9.0,13,0.00,,,0.00,775.000000,,2013-05-26 18:21:00,
2013-05-26 12:42:00,72.0,17.0,-100.00,West,262,8.0,20.0,12,0.00,,,0.00,1000.000000,,2013-05-26 18:42:00,
2013-05-26 12:52:00,72.0,17.0,-100.00,West,262,8.0,20.0,12,0.00,,,0.00,1000.000000,,2013-05-26 18:52:00,
2013-05-26 13:01:00,72.0,17.0,-100.00,West,262,8.0,20.0,12,0.00,,,0.00,1000.000000,,2013-05-26 19:01:00,
2013-05-26 13:11:00,72.0,17.0,-100.00,West,262,8.0,20.0,12,0.00,,,0.00,1000.000000,,2013-05-26 19:11:00,
2013-05-26 13:22:00,72.0,17.0,-100.00,West,262,8.0,20.0,12,0.00,,,0.00,1000.000000,,2013-05-26 19:22:00,
2013-05-26 13:42:00,74.0,14.0,-100.00,SW,220,6.0,19.0,10,0.00,,,0.00,1113.000000,,2013-05-26 19:42:00,
2013-05-26 13:52:00,74.0,14.0,-100.00,SW,220,6.0,19.0,10,0.00,,,0.00,1113.000000,,2013-05-26 19:52:00,
2013-05-26 14:02:00,74.0,14.0,-100.00,SW,220,6.0,19.0,10,0.00,,,0.00,1113.000000,,2013-05-26 20:02:00,
2013-05-26 14:11:00,74.0,14.0,-100.00,SW,220,6.0,19.0,10,0.00,,,0.00,1113.000000,,2013-05-26 20:11:00,
2013-05-26 14:21:00,74.0,14.0,-100.00,SW,220,6.0,19.0,10,0.00,,,0.00,1113.000000,,2013-05-26 20:21:00,
2013-05-26 14:42:00,75.0,17.0,-100.00,SW,233,5.0,17.0,11,0.00,,,0.00,951.000000,,2013-05-26 20:42:00,
2013-05-26 14:52:00,75.0,17.0,-100.00,SW,233,5.0,17.0,11,0.00,,,0.00,951.000000,,2013-05-26 20:52:00,
2013-05-26 15:02:00,75.0,17.0,-100.00,SW,233,5.0,17.0,11,0.00,,,0.00,951.000000,,2013-05-26 21:02:00,
2013-05-26 15:11:00,75.0,17.0,-100.00,SW,233,5.0,17.0,11,0.00,,,0.00,951.000000,,2013-05-26 21:11:00,
2013-05-26 15:22:00,75.0,17.0,-100.00,SW,233,5.0,17.0,11,0.00,,,0.00,951.000000,,2013-05-26 21:22:00,
2013-05-26 15:43:00,73.0,15.0,-100.00,West,260,7.0,14.0,11,0.00,,,0.00,718.000000,,2013-05-26 21:43:00,
2013-05-26 15:53:00,73.0,15.0,-100.00,West,260,7.0,14.0,11,0.00,,,0.00,718.000000,,2013-05-26 21:53:00,
2013-05-26 16:03:00,73.0,15.0,-100.00,West,260,7.0,14.0,11,0.00,,,0.00,718.000000,,2013-05-26 22:03:00,
2013-05-26 16:12:00,73.0,15.0,-100.00,West,260,7.0,14.0,11,0.00,,,0.00,718.000000,,2013-05-26 22:12:00,
2013-05-26 16:23:00,73.0,15.0,-100.00,West,260,7.0,14.0,11,0.00,,,0.00,718.000000,,2013-05-26 22:23:00,
2013-05-26 16:42:00,67.0,27.0,-100.00,ENE,65,10.0,15.0,22,0.00,,,0.00,400.000000,,2013-05-26 22:42:00,
2013-05-26 16:53:00,67.0,27.0,-100.00,ENE,65,10.0,15.0,22,0.00,,,0.00,400.000000,,2013-05-26 22:53:00,
2013-05-26 17:02:00,67.0,27.0,-100.00,ENE,65,10.0,15.0,22,0.00,,,0.00,400.000000,,2013-05-26 23:02:00,
2013-05-26 17:12:00,67.0,27.0,-100.00,ENE,65,10.0,15.0,22,0.00,,,0.00,400.000000,,2013-05-26 23:12:00,
2013-05-26 17:22:00,67.0,27.0,-100.00,ENE,65,10.0,15.0,22,0.00,,,0.00,400.000000,,2013-05-26 23:22:00,
2013-05-26 17:43:00,66.0,26.0,-100.00,NE,53,6.0,14.0,22,0.00,,,0.00,130.000000,,2013-05-26 23:43:00,
2013-05-26 17:52:00,66.0,26.0,-100.00,NE,53,6.0,14.0,22,0.00,,,0.00,130.000000,,2013-05-26 23:52:00,
2013-05-26 18:02:00,66.0,26.0,-100.00,NE,53,6.0,14.0,22,0.00,,,0.00,130.000000,,2013-05-27 00:02:00,
2013-05-26 18:11:00,66.0,26.0,-100.00,NE,53,6.0,14.0,22,0.00,,,0.00,130.000000,,2013-05-27 00:11:00,
2013-05-26 18:21:00,66.0,26.0,-100.00,NE,53,6.0,14.0,22,0.00,,,0.00,130.000000,,2013-05-27 00:21:00,
2013-05-26 18:42:00,65.0,26.0,-100.00,ESE,122,5.0,12.0,23,0.00,,,0.00,158.000000,,2013-05-27 00:42:00,
2013-05-26 18:52:00,65.0,26.0,-100.00,ESE,122,5.0,12.0,23,0.00,,,0.00,158.000000,,2013-05-27 00:52:00,
2013-05-26 19:01:00,65.0,26.0,-100.00,ESE,122,5.0,12.0,23,0.00,,,0.00,158.000000,,2013-05-27 01:01:00,
2013-05-26 19:11:00,65.0,26.0,-100.00,ESE,122,5.0,12.0,23,0.00,,,0.00,158.000000,,2013-05-27 01:11:00,
2013-05-26 19:22:00,65.0,26.0,-100.00,ESE,122,5.0,12.0,23,0.00,,,0.00,158.000000,,2013-05-27 01:22:00,
2013-05-26 19:42:00,63.0,29.0,-100.00,ENE,71,4.0,10.0,27,0.00,,,0.00,53.000000,,2013-05-27 01:42:00,
2013-05-26 19:52:00,63.0,29.0,-100.00,ENE,71,4.0,10.0,27,0.00,,,0.00,53.000000,,2013-05-27 01:52:00,
2013-05-26 20:02:00,63.0,29.0,-100.00,ENE,71,4.0,10.0,27,0.00,,,0.00,53.000000,,2013-05-27 02:02:00,
2013-05-26 20:11:00,63.0,29.0,-100.00,ENE,71,4.0,10.0,27,0.00,,,0.00,53.000000,,2013-05-27 02:11:00,
2013-05-26 20:21:00,63.0,29.0,-100.00,ENE,71,4.0,10.0,27,0.00,,,0.00,53.000000,,2013-05-27 02:21:00,
2013-05-26 20:43:00,60.0,28.0,-100.00,South,171,5.0,12.0,30,0.00,,,0.00,15.000000,,2013-05-27 02:43:00,
2013-05-26 20:52:00,60.0,28.0,-100.00,South,171,5.0,12.0,30,0.00,,,0.00,15.000000,,2013-05-27 02:52:00,
2013-05-26 21:02:00,60.0,28.0,-100.00,South,171,5.0,12.0,30,0.00,,,0.00,15.000000,,2013-05-27 03:02:00,
2013-05-26 21:11:00,60.0,28.0,-100.00,South,171,5.0,12.0,30,0.00,,,0.00,15.000000,,2013-05-27 03:11:00,
2013-05-26 21:21:00,60.0,28.0,-100.00,South,171,5.0,12.0,30,0.00,,,0.00,15.000000,,2013-05-27 03:21:00,
2013-05-26 21:43:00,52.0,32.0,-100.00,WNW,288,2.0,13.0,46,0.00,,,0.00,3.000000,,2013-05-27 03:43:00,
2013-05-26 21:53:00,52.0,32.0,-100.00,WNW,288,2.0,13.0,46,0.00,,,0.00,3.000000,,2013-05-27 03:53:00,
2013-05-26 22:02:00,52.0,32.0,-100.00,WNW,288,2.0,13.0,46,0.00,,,0.00,3.000000,,2013-05-27 04:02:00,
2013-05-26 22:12:00,52.0,32.0,-100.00,WNW,288,2.0,13.0,46,0.00,,,0.00,3.000000,,2013-05-27 04:12:00,
2013-05-26 22:23:00,52.0,32.0,-100.00,WNW,288,2.0,13.0,46,0.00,,,0.00,3.000000,,2013-05-27 04:23:00,
2013-05-26 22:43:00,47.0,31.0,-100.00,WNW,299,1.0,6.0,53,0.00,,,0.00,1.000000,,2013-05-27 04:43:00,
2013-05-26 22:52:00,47.0,31.0,-100.00,WNW,299,1.0,6.0,53,0.00,,,0.00,1.000000,,2013-05-27 04:52:00,
2013-05-26 23:02:00,47.0,31.0,-100.00,WNW,299,1.0,6.0,53,0.00,,,0.00,1.000000,,2013-05-27 05:02:00,
2013-05-26 23:12:00,47.0,31.0,-100.00,WNW,299,1.0,6.0,53,0.00,,,0.00,1.000000,,2013-05-27 05:12:00,
2013-05-26 23:22:00,47.0,31.0,-100.00,WNW,299,1.0,6.0,53,0.00,,,0.00,1.000000,,2013-05-27 05:22:00,
2013-05-26 23:42:00,53.0,29.0,-100.00,WSW,253,4.0,8.0,40,0.00,,,0.00,1.000000,,2013-05-27 05:42:00,
2013-05-26 23:52:00,53.0,29.0,-100.00,WSW,253,4.0,8.0,40,0.00,,,0.00,1.000000,,2013-05-27 05:52:00,